Terminal Aerodrome Forecast
Issued by NWS

Home | Current Version | Previous Version | Graphics & Text | Print | Product List | Glossary On
Versions: 1 2 3 4 5 6 7 8 9 10 11 12 13 14 15
000
FTUS45 KVEF 280901 AAB
TAFDAG
TAF AMD
KDAG 280901Z 2809/2906 26018G26KT P6SM VCSH SCT050 BKN070
      TEMPO 2809/2813 -RA SCT040 BKN060
     FM281600 27022G30KT P6SM SCT060=

USA.gov is the U.S. government's official web portal to all federal, state and local government web resources and services.